Time;durP1;ratioP1;P1;durP2;ratioP2;P2;SDS_P1;SDS_P2;PMS_P1;PMS_P2;Temp;Humidity;BMP_temperature;BMP_pressure;BME280_temperature;BME280_humidity;BME280_pressure;Samples;Min_cycle;Max_cycle;Signal;HPM_P1;HPM_P2
2023/04/23 03:00:14;;;;;;;8.30;7.80;;;12.90;99.90;;;;;;6069555;23;20185;31
2023/04/23 03:02:40;;;;;;;10.13;9.57;;;12.90;99.90;;;;;;4952854;29;20222;-79
2023/04/23 03:05:06;;;;;;;8.60;8.10;;;12.90;99.90;;;;;;4956663;29;20186;-80
2023/04/23 03:07:32;;;;;;;7.60;7.03;;;12.80;99.90;;;;;;4972198;28;20571;-79
2023/04/23 03:09:57;;;;;;;6.60;6.20;;;12.90;99.90;;;;;;4958775;28;20184;-78
2023/04/23 03:12:23;;;;;;;7.97;7.27;;;12.90;99.90;;;;;;4960348;28;20217;-78
2023/04/23 03:14:49;;;;;;;5.90;5.40;;;12.90;99.90;;;;;;4962133;29;20174;-79
2023/04/23 03:17:15;;;;;;;6.17;5.63;;;12.80;99.90;;;;;;4977639;28;20237;-77
2023/04/23 03:19:41;;;;;;;8.60;7.90;;;12.80;99.90;;;;;;4957701;29;20186;-78
2023/04/23 03:22:06;;;;;;;9.40;8.90;;;12.80;99.90;;;;;;4955503;28;20807;-78
2023/04/23 03:24:33;;;;;;;10.30;9.67;;;12.80;99.90;;;;;;4954512;29;20193;-79
2023/04/23 03:26:59;;;;;;;9.80;9.13;;;12.90;99.90;;;;;;4953284;29;20240;-78
2023/04/23 03:29:25;;;;;;;10.37;9.77;;;12.80;99.90;;;;;;4953648;29;20197;-78
2023/04/23 03:31:51;;;;;;;14.37;13.57;;;12.70;99.90;;;;;;4954252;29;20581;-79
2023/04/23 03:34:17;;;;;;;22.87;21.60;;;12.70;99.90;;;;;;4955462;28;20192;-78
2023/04/23 03:36:43;;;;;;;22.53;21.33;;;12.70;99.90;;;;;;4962471;29;20181;-78
2023/04/23 03:39:09;;;;;;;17.60;16.70;;;12.70;99.90;;;;;;4958076;28;20178;-79
2023/04/23 03:41:35;;;;;;;18.63;17.47;;;12.70;99.90;;;;;;4955233;28;20212;-79
2023/04/23 03:44:01;;;;;;;18.37;17.43;;;12.70;99.90;;;;;;4953774;28;20265;-78
2023/04/23 03:46:27;;;;;;;16.57;15.67;;;12.60;99.90;;;;;;4953313;28;20194;-79
2023/04/23 03:48:52;;;;;;;19.43;18.43;;;12.60;99.90;;;;;;4973506;28;20177;-77
2023/04/23 03:51:18;;;;;;;20.83;19.77;;;12.60;99.90;;;;;;4965747;28;20243;-78
2023/04/23 03:53:45;;;;;;;13.33;12.43;;;12.60;99.90;;;;;;4966183;29;20182;-78
2023/04/23 03:56:10;;;;;;;9.90;9.33;;;12.60;99.90;;;;;;4968706;28;20186;-78
2023/04/23 03:58:37;;;;;;;13.30;12.40;;;12.60;99.90;;;;;;4979070;28;20189;-78
2023/04/23 04:01:03;;;;;;;9.60;9.10;;;12.60;99.90;;;;;;4976590;28;20225;-77
2023/04/23 04:03:28;;;;;;;8.13;7.63;;;12.60;99.90;;;;;;4955891;29;20281;-79
2023/04/23 04:05:54;;;;;;;7.43;6.53;;;12.60;99.90;;;;;;4969844;28;20307;-79
2023/04/23 04:08:21;;;;;;;6.67;6.20;;;12.50;99.90;;;;;;4968498;28;20236;-78
2023/04/23 04:10:47;;;;;;;6.67;6.27;;;12.60;99.90;;;;;;4955887;29;20222;-78
2023/04/23 04:13:14;;;;;;;7.70;7.03;;;12.50;99.90;;;;;;4971057;28;20241;-78
2023/04/23 04:15:40;;;;;;;7.80;7.10;;;12.50;99.90;;;;;;4953123;29;20182;-78
2023/04/23 04:18:06;;;;;;;7.97;7.43;;;12.50;99.90;;;;;;4953180;29;20178;-79
2023/04/23 04:20:32;;;;;;;7.63;7.13;;;12.50;99.90;;;;;;4953321;28;20264;-79
2023/04/23 04:22:57;;;;;;;10.03;9.23;;;12.50;99.90;;;;;;4955798;28;20182;-78
2023/04/23 04:25:23;;;;;;;11.40;10.60;;;12.50;99.90;;;;;;4958467;29;20357;-78
2023/04/23 04:27:49;;;;;;;22.10;20.93;;;12.50;99.90;;;;;;4956289;28;20842;-79
2023/04/23 04:30:15;;;;;;;17.23;16.23;;;12.50;99.90;;;;;;4955590;28;20213;-78
2023/04/23 04:32:42;;;;;;;30.27;28.63;;;12.50;99.90;;;;;;4954997;28;20177;-78
2023/04/23 04:35:08;;;;;;;7.20;6.50;;;12.50;99.90;;;;;;4956976;28;20187;-79
2023/04/23 04:37:35;;;;;;;8.40;7.60;;;12.50;99.90;;;;;;4975923;28;20181;-78
2023/04/23 04:40:01;;;;;;;7.60;7.13;;;12.50;99.90;;;;;;4965445;29;20205;-78
2023/04/23 04:42:27;;;;;;;16.27;15.27;;;12.50;99.90;;;;;;4959626;29;20212;-79
2023/04/23 04:44:52;;;;;;;8.13;7.60;;;12.50;99.90;;;;;;4955083;28;20273;-75
2023/04/23 04:47:18;;;;;;;10.80;9.87;;;12.50;99.90;;;;;;4953803;29;20182;-80
2023/04/23 04:49:44;;;;;;;27.40;25.93;;;12.50;99.90;;;;;;4970661;28;20559;-75
2023/04/23 04:52:10;;;;;;;58.73;55.67;;;12.50;99.90;;;;;;4970084;28;20217;-74
2023/04/23 04:54:36;;;;;;;27.83;26.37;;;12.60;99.90;;;;;;4969894;28;20212;-75
2023/04/23 04:57:02;;;;;;;11.37;10.57;;;12.60;99.90;;;;;;4969545;28;20192;-75
2023/04/23 04:59:28;;;;;;;9.77;9.17;;;12.60;99.90;;;;;;4955110;29;20640;-74
2023/04/23 05:01:53;;;;;;;14.33;13.63;;;12.60;99.90;;;;;;4954928;28;20217;-76
2023/04/23 05:04:19;;;;;;;36.60;34.73;;;12.60;99.90;;;;;;4954909;28;20193;-75
2023/04/23 05:06:45;;;;;;;9.67;9.07;;;12.50;99.90;;;;;;4954964;28;20182;-75
2023/04/23 05:09:11;;;;;;;9.63;9.03;;;12.50;99.90;;;;;;4953263;28;20193;-75
2023/04/23 05:11:37;;;;;;;7.37;6.87;;;12.50;99.90;;;;;;4954926;28;20214;-75
2023/04/23 05:14:03;;;;;;;6.03;5.60;;;12.50;99.90;;;;;;4970324;28;20220;-76
2023/04/23 05:16:29;;;;;;;6.70;6.30;;;12.60;99.90;;;;;;4969735;28;20269;-75
2023/04/23 05:18:55;;;;;;;8.30;7.73;;;12.60;99.90;;;;;;4969164;28;20213;-75
2023/04/23 05:21:21;;;;;;;8.60;8.00;;;12.60;99.90;;;;;;4954595;28;20209;-75
2023/04/23 05:23:48;;;;;;;5.73;5.43;;;12.60;99.90;;;;;;4953316;29;20232;-75
2023/04/23 05:26:14;;;;;;;6.13;5.63;;;12.70;99.90;;;;;;4954776;29;20213;-75
2023/04/23 05:28:39;;;;;;;6.03;5.40;;;12.70;99.90;;;;;;4954166;28;20224;-76
2023/04/23 05:31:05;;;;;;;5.13;4.90;;;12.70;99.90;;;;;;4953180;29;20583;-75
2023/04/23 05:33:31;;;;;;;7.00;6.30;;;12.80;99.90;;;;;;4954353;28;20193;-75
2023/04/23 05:35:57;;;;;;;5.70;5.20;;;12.80;99.90;;;;;;4953428;29;20473;-75
2023/04/23 05:38:22;;;;;;;5.23;4.83;;;12.90;99.90;;;;;;4954352;28;20190;-75
2023/04/23 05:40:48;;;;;;;5.47;4.90;;;13.10;99.90;;;;;;4952940;28;20220;-76
2023/04/23 05:43:14;;;;;;;6.87;6.57;;;13.30;99.90;;;;;;4954447;28;20272;-75
2023/04/23 05:45:40;;;;;;;8.67;8.27;;;13.50;99.90;;;;;;4954396;28;20193;-74
2023/04/23 05:48:06;;;;;;;6.33;5.97;;;13.60;99.90;;;;;;4954018;29;20188;-75
2023/04/23 05:50:32;;;;;;;7.43;7.03;;;13.60;99.90;;;;;;4969080;28;20272;-74
2023/04/23 05:52:58;;;;;;;7.60;7.20;;;13.50;99.90;;;;;;4954433;28;20260;-75
2023/04/23 05:55:24;;;;;;;11.03;10.53;;;13.60;99.90;;;;;;4953795;28;20533;-75
2023/04/23 05:57:50;;;;;;;12.20;11.60;;;13.50;99.90;;;;;;4968891;28;20186;-75
2023/04/23 06:00:16;;;;;;;10.53;10.03;;;13.50;99.90;;;;;;4954298;28;20185;-75
2023/04/23 06:02:41;;;;;;;11.53;10.93;;;13.50;99.90;;;;;;4969099;28;20190;-75
2023/04/23 06:05:08;;;;;;;9.83;9.23;;;13.60;99.90;;;;;;4953835;28;20181;-75
2023/04/23 06:07:35;;;;;;;6.03;5.67;;;13.60;99.90;;;;;;4953462;28;20196;-74
2023/04/23 06:10:01;;;;;;;5.20;4.90;;;13.60;99.90;;;;;;4953894;29;20177;-75
2023/04/23 06:12:27;;;;;;;4.50;4.30;;;13.60;99.90;;;;;;4967372;28;20220;-75
2023/04/23 06:14:53;;;;;;;4.77;4.57;;;13.70;99.90;;;;;;4966795;28;20178;-75
2023/04/23 06:17:18;;;;;;;34.57;32.90;;;13.70;99.90;;;;;;4951266;29;20556;-75
2023/04/23 06:19:44;;;;;;;24.50;23.33;;;13.80;99.90;;;;;;4951144;29;20607;-75
2023/04/23 06:22:10;;;;;;;22.40;21.30;;;13.80;99.90;;;;;;4951303;28;20292;-75
2023/04/23 06:24:36;;;;;;;22.77;21.50;;;13.80;99.90;;;;;;4966877;28;20217;-75
2023/04/23 06:27:02;;;;;;;25.67;24.23;;;13.90;99.90;;;;;;4952398;28;20185;-75
2023/04/23 06:29:28;;;;;;;21.10;20.03;;;14.00;99.90;;;;;;4967578;28;20185;-76
2023/04/23 06:31:57;;;;;;;5.97;5.67;;;14.20;99.90;;;;;;4969778;28;20225;-74
2023/04/23 06:34:23;;;;;;;7.77;7.37;;;14.40;99.90;;;;;;4953170;29;20201;-75
2023/04/23 06:36:50;;;;;;;11.57;11.07;;;14.60;99.90;;;;;;4955780;28;20568;-76
2023/04/23 06:39:16;;;;;;;10.90;10.13;;;14.80;99.90;;;;;;4961216;29;20181;-74
2023/04/23 06:41:42;;;;;;;13.10;12.50;;;15.00;99.90;;;;;;4955378;29;20328;-75
2023/04/23 06:44:08;;;;;;;13.50;12.87;;;15.30;99.90;;;;;;4952596;28;20685;-75
2023/04/23 06:46:34;;;;;;;8.67;8.23;;;16.00;99.90;;;;;;4952431;28;20185;-75
2023/04/23 06:49:00;;;;;;;13.37;12.53;;;16.20;99.90;;;;;;4967732;28;20244;-74
2023/04/23 06:51:26;;;;;;;11.10;10.57;;;16.40;99.90;;;;;;4953399;28;20244;-75
2023/04/23 06:53:53;;;;;;;9.80;9.30;;;16.40;99.90;;;;;;4967387;28;20580;-75
2023/04/23 06:56:20;;;;;;;15.57;14.37;;;16.50;99.90;;;;;;4952783;29;20205;-75
2023/04/23 06:58:46;;;;;;;22.90;21.80;;;17.00;99.90;;;;;;4951858;29;20190;-75
2023/04/23 07:01:12;;;;;;;16.27;15.47;;;17.10;99.90;;;;;;4952036;28;20218;-74
2023/04/23 07:03:38;;;;;;;11.60;11.00;;;17.20;99.90;;;;;;4953069;28;20192;-74
2023/04/23 07:06:04;;;;;;;18.07;17.10;;;17.20;99.90;;;;;;4951846;28;20568;-74
2023/04/23 07:08:30;;;;;;;52.27;49.77;;;17.60;99.90;;;;;;4952838;28;20283;-74
2023/04/23 07:10:56;;;;;;;36.30;34.60;;;18.10;99.90;;;;;;4952693;29;20752;-74
2023/04/23 07:13:23;;;;;;;7.40;7.00;;;18.70;99.90;;;;;;4953249;29;20186;-74
2023/04/23 07:15:48;;;;;;;4.13;3.80;;;19.20;99.90;;;;;;4952715;28;20184;-74
2023/04/23 07:18:14;;;;;;;4.07;3.90;;;19.50;99.90;;;;;;4952835;29;20245;-76
2023/04/23 07:20:43;;;;;;;3.92;3.78;;;19.30;99.90;;;;;;4951998;29;20233;-75
2023/04/23 07:23:09;;;;;;;4.18;3.83;;;18.90;99.90;;;;;;4968521;28;20189;-74
2023/04/23 07:25:35;;;;;;;8.45;7.85;;;18.50;99.90;;;;;;4953809;29;20646;-74
2023/04/23 07:28:01;;;;;;;6.80;6.30;;;18.20;99.90;;;;;;4952503;28;20280;-75
2023/04/23 07:30:27;;;;;;;7.13;6.83;;;18.00;99.90;;;;;;4953169;29;20573;-75
2023/04/23 07:32:54;;;;;;;7.10;6.80;;;18.10;99.90;;;;;;4953398;29;20252;-74
2023/04/23 07:35:20;;;;;;;4.60;4.40;;;17.80;99.90;;;;;;4952715;28;20177;-76
2023/04/23 07:37:46;;;;;;;12.40;11.85;;;17.70;99.90;;;;;;4952877;28;20649;-74
2023/04/23 07:40:15;;;;;;;25.83;24.50;;;17.70;99.90;;;;;;4967610;28;20185;-76
2023/04/23 07:42:40;;;;;;;5.47;5.20;;;18.20;99.90;;;;;;4952821;28;20189;-75
2023/04/23 07:45:07;;;;;;;3.20;3.05;;;18.60;99.90;;;;;;4952112;29;20192;-75
2023/04/23 07:47:33;;;;;;;8.05;7.75;;;18.50;99.90;;;;;;4952498;28;20673;-77
2023/04/23 07:49:58;;;;;;;4.82;4.72;;;18.60;99.90;;;;;;4951618;28;20189;-75
2023/04/23 07:52:24;;;;;;;7.05;6.82;;;19.30;99.90;;;;;;4952719;29;20586;-74
2023/04/23 07:54:50;;;;;;;22.10;21.00;;;20.30;99.90;;;;;;4952509;28;20178;-75
2023/04/23 07:57:16;;;;;;;9.10;8.48;;;21.10;99.90;;;;;;4952733;28;20615;-75
2023/04/23 07:59:42;;;;;;;6.53;6.07;;;21.30;99.90;;;;;;4953020;28;20186;-76
2023/04/23 08:02:08;;;;;;;19.38;7.80;;;22.10;99.90;;;;;;4952445;28;20225;-74
2023/04/23 08:04:33;;;;;;;3.55;3.45;;;22.40;99.90;;;;;;4955516;28;20182;-74
2023/04/23 08:06:59;;;;;;;4.20;4.10;;;22.40;99.90;;;;;;4956489;28;20713;-74
2023/04/23 08:09:25;;;;;;;5.57;5.38;;;22.10;99.90;;;;;;4956446;28;20189;-75
2023/04/23 08:11:51;;;;;;;4.20;3.97;;;21.00;99.90;;;;;;4956125;28;20240;-75
2023/04/23 08:14:17;;;;;;;5.00;4.80;;;20.90;99.90;;;;;;4971487;28;20178;-74
2023/04/23 08:16:43;;;;;;;5.32;5.13;;;20.60;99.90;;;;;;4954805;28;20192;-74
2023/04/23 08:19:10;;;;;;;6.45;6.25;;;20.70;99.90;;;;;;4970668;28;20178;-74
2023/04/23 08:21:36;;;;;;;8.23;7.82;;;20.60;99.90;;;;;;4955522;28;20225;-74
2023/04/23 08:24:03;;;;;;;10.20;9.80;;;20.40;99.90;;;;;;4955109;29;20564;-74
2023/04/23 08:26:29;;;;;;;9.25;8.85;;;20.00;99.90;;;;;;4954254;29;20763;-75
2023/04/23 08:28:55;;;;;;;6.75;6.45;;;19.40;99.90;;;;;;4955255;28;20634;-76
2023/04/23 08:31:21;;;;;;;7.45;7.15;;;19.00;99.90;;;;;;4955580;29;20221;-74
2023/04/23 08:33:47;;;;;;;11.63;11.13;;;18.90;99.90;;;;;;4955965;28;20595;-75
2023/04/23 08:36:14;;;;;;;18.50;17.67;;;18.80;99.90;;;;;;4955408;28;20302;-75
2023/04/23 08:38:40;;;;;;;30.98;29.38;;;18.50;99.90;;;;;;4955372;28;20174;-74
2023/04/23 08:41:10;;;;;;;47.45;45.15;;;18.30;99.90;;;;;;4954254;28;20217;-75
2023/04/23 08:44:04;;;;;;;26.67;25.33;;;18.20;99.90;;;;;;4971334;28;20207;-75
2023/04/23 08:46:33;;;;;;;18.33;17.52;;;18.20;99.90;;;;;;4958258;28;20651;-75
2023/04/23 08:49:01;;;;;;;28.45;27.15;;;18.90;99.90;;;;;;4960031;28;20596;-74
2023/04/23 08:51:31;;;;;;;7.97;7.55;;;20.30;99.90;;;;;;4971734;28;20209;-75
2023/04/23 08:53:59;;;;;;;8.23;7.82;;;21.30;99.90;;;;;;4958081;29;20185;-75
2023/04/23 08:56:26;;;;;;;5.22;5.03;;;22.00;99.90;;;;;;4958763;29;20186;-74
2023/04/23 08:58:52;;;;;;;5.80;5.60;;;22.00;99.90;;;;;;4954503;29;20277;-75
2023/04/23 09:01:18;;;;;;;6.25;5.95;;;21.30;99.90;;;;;;4955456;28;20353;-75
2023/04/23 09:03:44;;;;;;;6.10;5.85;;;20.80;99.90;;;;;;4955696;28;20285;-75
2023/04/23 09:06:11;;;;;;;6.13;5.82;;;20.60;99.90;;;;;;4955775;28;20678;-76
2023/04/23 09:08:37;;;;;;;6.38;5.88;;;20.30;99.90;;;;;;4955193;28;20317;-75
2023/04/23 09:11:04;;;;;;;6.75;6.45;;;20.20;99.90;;;;;;4955538;29;20715;-75
2023/04/23 09:13:32;;;;;;;6.82;6.18;;;20.10;99.90;;;;;;4955172;29;20190;-75
2023/04/23 09:15:58;;;;;;;9.10;8.70;;;20.50;99.90;;;;;;4955441;28;20721;-74
2023/04/23 09:18:24;;;;;;;4.50;4.22;;;21.20;99.90;;;;;;4954984;29;20273;-75
2023/04/23 09:20:49;;;;;;;6.50;6.18;;;21.80;99.90;;;;;;4955263;28;20733;-75
2023/04/23 09:23:15;;;;;;;10.85;10.38;;;22.00;99.90;;;;;;4955185;28;20185;-76
2023/04/23 09:25:41;;;;;;;15.35;14.70;;;22.00;99.90;;;;;;4955472;28;20177;-75
2023/04/23 09:28:09;;;;;;;14.63;13.98;;;21.60;99.40;;;;;;4970057;28;20617;-74
2023/04/23 09:30:53;;;;;;;12.43;11.75;;;21.10;99.90;;;;;;4954103;28;20210;-74
2023/04/23 09:33:20;;;;;;;3.90;3.75;;;20.30;99.90;;;;;;4954895;28;20564;-76
2023/04/23 09:35:47;;;;;;;11.35;10.68;;;19.80;99.90;;;;;;4955397;28;20554;-77
2023/04/23 09:38:14;;;;;;;9.45;8.98;;;19.60;99.90;;;;;;4970024;28;20189;-75
2023/04/23 09:40:39;;;;;;;9.35;8.95;;;19.60;99.90;;;;;;4955447;29;20229;-75
2023/04/23 09:43:09;;;;;;;9.45;9.02;;;19.70;99.90;;;;;;4955028;29;20724;-76
2023/04/23 09:45:35;;;;;;;8.05;7.75;;;20.10;99.90;;;;;;4970021;28;20181;-75
2023/04/23 09:48:01;;;;;;;11.45;10.93;;;20.40;99.90;;;;;;4955218;29;20686;-76
2023/04/23 09:50:35;;;;;;;7.10;6.75;;;20.80;99.90;;;;;;4955160;28;20205;-76
2023/04/23 09:53:02;;;;;;;4.13;4.03;;;20.70;99.90;;;;;;4954908;29;20185;-74
2023/04/23 09:55:36;;;;;;;6.28;5.97;;;20.80;99.90;;;;;;4954908;29;20538;-77
2023/04/23 09:58:06;;;;;;;5.40;5.20;;;21.00;99.90;;;;;;4954422;29;20244;-75
2023/04/23 10:00:36;;;;;;;7.40;7.10;;;21.30;99.90;;;;;;4954782;28;20186;-75
2023/04/23 10:03:03;;;;;;;8.45;8.02;;;21.70;99.20;;;;;;4954830;28;20193;-75
2023/04/23 10:05:30;;;;;;;10.88;10.45;;;21.70;97.90;;;;;;4969644;28;20289;-75
2023/04/23 10:07:58;;;;;;;15.38;14.70;;;22.30;98.60;;;;;;4954224;29;20896;-75
2023/04/23 10:10:24;;;;;;;4.25;4.05;;;23.20;97.60;;;;;;4954121;28;20756;-75
2023/04/23 10:12:53;;;;;;;6.50;6.30;;;23.30;95.00;;;;;;4954290;29;20280;-76
2023/04/23 10:15:19;;;;;;;4.68;4.32;;;22.60;96.50;;;;;;4954909;28;20272;-75
2023/04/23 10:17:46;;;;;;;4.28;4.07;;;22.50;95.20;;;;;;4954216;28;20233;-75
2023/04/23 10:20:13;;;;;;;7.88;7.57;;;21.80;96.40;;;;;;4954393;29;20771;-76
2023/04/23 10:22:42;;;;;;;5.50;5.25;;;21.70;96.70;;;;;;4968905;28;20241;-75
2023/04/23 10:25:10;;;;;;;4.57;4.38;;;21.80;95.40;;;;;;4954012;28;20650;-75
2023/04/23 10:27:39;;;;;;;9.63;9.23;;;22.00;95.00;;;;;;4953214;28;20806;-75
2023/04/23 10:30:06;;;;;;;21.83;20.88;;;22.40;92.00;;;;;;4953914;29;20178;-75
2023/04/23 10:32:36;;;;;;;52.50;50.03;;;22.70;91.00;;;;;;4953762;28;20201;-76
2023/04/23 10:35:02;;;;;;;78.00;74.35;;;23.20;89.80;;;;;;4968911;28;20178;-74
2023/04/23 10:37:28;;;;;;;86.03;81.95;;;23.50;88.50;;;;;;4953689;29;20193;-75
2023/04/23 10:39:58;;;;;;;46.15;44.03;;;23.60;85.90;;;;;;4968413;28;20182;-75
2023/04/23 10:42:24;;;;;;;34.00;32.47;;;23.80;80.90;;;;;;4953890;29;20240;-74
2023/04/23 10:44:56;;;;;;;19.08;18.27;;;24.40;80.60;;;;;;4953151;28;20186;-75
2023/04/23 10:47:22;;;;;;;19.92;19.08;;;24.40;77.30;;;;;;4953753;29;20185;-76
2023/04/23 10:49:48;;;;;;;17.63;16.77;;;24.10;77.70;;;;;;4953533;28;20182;-75
2023/04/23 10:52:16;;;;;;;6.78;6.53;;;24.60;76.00;;;;;;4953582;29;20228;-75
2023/04/23 10:54:46;;;;;;;7.25;6.95;;;25.20;71.40;;;;;;4952427;29;20182;-74
2023/04/23 10:57:12;;;;;;;4.07;3.70;;;25.10;74.70;;;;;;4953423;28;20181;-74
2023/04/23 10:59:58;;;;;;;5.22;5.05;;;24.80;73.80;;;;;;4953669;28;20184;-74
2023/04/23 11:02:24;;;;;;;3.90;3.80;;;24.30;73.30;;;;;;4934031;29;20234;-75
2023/04/23 11:04:57;;;;;;;4.90;4.75;;;23.80;73.50;;;;;;4933219;29;20189;-75
2023/04/23 11:07:31;;;;;;;13.13;12.48;;;23.40;75.80;;;;;;4934143;29;20186;-74
2023/04/23 11:10:13;;;;;;;10.50;10.05;;;23.60;74.90;;;;;;4935219;29;20186;-75
2023/04/23 11:12:40;;;;;;;15.73;15.02;;;23.60;75.10;;;;;;4958591;28;20199;-76
2023/04/23 11:15:17;;;;;;;25.90;24.70;;;23.10;76.10;;;;;;4953468;29;20186;-75
2023/04/23 11:17:43;;;;;;;66.75;63.55;;;22.50;77.90;;;;;;4967340;28;20554;-75
2023/04/23 11:20:10;;;;;;;60.25;57.33;;;22.30;81.90;;;;;;4967780;28;20186;-74
2023/04/23 11:22:44;;;;;;;58.47;55.60;;;22.40;81.20;;;;;;4954595;28;20201;-74
2023/04/23 11:25:11;;;;;;;70.55;67.05;;;22.80;80.60;;;;;;4957558;28;20216;-74
2023/04/23 11:27:42;;;;;;;57.90;54.97;;;23.70;81.10;;;;;;4954765;28;20254;-73
2023/04/23 11:30:25;;;;;;;35.45;33.85;;;24.40;79.10;;;;;;4959340;28;20217;-74
2023/04/23 11:32:54;;;;;;;21.42;20.27;;;25.00;74.30;;;;;;4955780;28;20280;-72
2023/04/23 11:35:22;;;;;;;4.00;3.80;;;25.40;74.80;;;;;;4950725;28;20264;-76
2023/04/23 11:37:49;;;;;;;4.05;3.85;;;24.50;72.10;;;;;;4952594;28;20225;-74
2023/04/23 11:40:18;;;;;;;4.13;4.00;;;24.40;72.10;;;;;;4954861;28;20531;-75
2023/04/23 11:42:56;;;;;;;5.25;4.85;;;24.30;73.90;;;;;;4956019;28;20189;-73
2023/04/23 11:45:27;;;;;;;4.45;4.35;;;24.30;73.90;;;;;;4957004;29;20208;-74
2023/04/23 11:47:55;;;;;;;5.53;5.32;;;24.30;75.40;;;;;;4956484;29;20177;-74
2023/04/23 11:50:22;;;;;;;5.57;5.38;;;24.00;73.90;;;;;;4955198;29;20849;-73
2023/04/23 11:52:48;;;;;;;6.10;5.82;;;23.50;74.90;;;;;;4971994;28;20189;-74
2023/04/23 11:55:15;;;;;;;15.27;14.52;;;23.40;74.70;;;;;;4955668;29;20614;-74
2023/04/23 11:57:45;;;;;;;3.50;3.40;;;24.80;76.80;;;;;;4957727;28;20182;-73
2023/04/23 12:00:19;;;;;;;3.35;3.25;;;25.90;68.60;;;;;;4957763;29;20182;-73
2023/04/23 12:02:52;;;;;;;3.60;3.30;;;26.50;69.20;;;;;;4956898;29;20181;-77
2023/04/23 12:05:32;;;;;;;3.53;3.33;;;26.50;68.30;;;;;;4957581;28;20192;-76
2023/04/23 12:08:13;;;;;;;3.55;3.38;;;25.90;69.10;;;;;;4958970;28;20217;-77
2023/04/23 12:10:46;;;;;;;3.20;3.10;;;25.40;71.30;;;;;;4967181;29;20249;-83
2023/04/23 12:13:23;;;;;;;3.60;3.50;;;25.40;69.70;;;;;;4969526;28;20189;-79
2023/04/23 12:15:55;;;;;;;3.28;3.13;;;25.70;71.10;;;;;;4965279;29;20253;-79
2023/04/23 12:18:27;;;;;;;3.40;3.30;;;25.50;67.50;;;;;;4966017;29;20217;-79
2023/04/23 12:20:53;;;;;;;3.20;3.00;;;25.20;67.50;;;;;;4966491;28;20213;-79
2023/04/23 12:23:26;;;;;;;3.25;3.15;;;25.70;66.60;;;;;;4966141;29;20182;-79
2023/04/23 12:25:55;;;;;;;2.60;2.40;;;25.80;65.00;;;;;;4967018;28;20217;-80
2023/04/23 12:28:24;;;;;;;2.85;2.70;;;26.50;64.30;;;;;;4978097;28;20196;-78
2023/04/23 12:30:51;;;;;;;2.60;2.50;;;26.40;64.00;;;;;;4966371;29;20209;-79
2023/04/23 12:33:17;;;;;;;2.30;2.30;;;26.80;64.60;;;;;;4964405;28;20338;-79
2023/04/23 12:35:49;;;;;;;3.90;2.85;;;27.20;64.40;;;;;;4965322;29;20201;-79
2023/04/23 12:38:23;;;;;;;3.72;3.63;;;27.60;61.90;;;;;;4967689;29;20189;-80
2023/04/23 12:40:49;;;;;;;4.65;4.55;;;28.30;61.20;;;;;;4964811;29;20722;-79
2023/04/23 12:43:15;;;;;;;6.22;5.93;;;28.60;60.10;;;;;;4968798;28;20182;-79
2023/04/23 12:45:41;;;;;;;6.70;6.50;;;28.50;59.20;;;;;;4960632;28;20182;-78
2023/04/23 12:48:07;;;;;;;6.85;6.57;;;27.70;60.40;;;;;;4955792;29;20538;-79
2023/04/23 12:50:33;;;;;;;7.38;6.95;;;27.20;60.40;;;;;;4958590;28;20228;-77
2023/04/23 12:52:59;;;;;;;4.25;4.05;;;27.60;60.80;;;;;;4976320;28;20615;-78
2023/04/23 12:55:24;;;;;;;7.88;7.38;;;28.00;59.70;;;;;;4978881;28;20201;-78
2023/04/23 12:57:50;;;;;;;13.48;12.88;;;28.20;59.60;;;;;;4980784;28;20193;-76
2023/04/23 13:00:16;;;;;;;5.55;5.35;;;27.20;60.60;;;;;;4979199;28;20181;-76
2023/04/23 13:02:42;;;;;;;3.08;2.97;;;26.60;62.30;;;;;;4960190;28;20228;-76
2023/04/23 13:05:08;;;;;;;4.10;3.90;;;26.70;63.60;;;;;;4954961;28;20184;-72
2023/04/23 13:07:34;;;;;;;5.07;4.78;;;27.10;61.20;;;;;;4954868;28;20181;-72
2023/04/23 13:10:00;;;;;;;4.03;3.88;;;25.90;60.60;;;;;;4955117;29;20189;-72
2023/04/23 13:12:26;;;;;;;3.20;3.10;;;25.30;62.60;;;;;;4954887;28;20209;-72
2023/04/23 13:14:52;;;;;;;2.95;2.75;;;25.70;62.80;;;;;;4969430;28;20209;-71
2023/04/23 13:17:17;;;;;;;3.28;3.17;;;26.70;62.10;;;;;;4954534;29;20232;-73
2023/04/23 13:19:43;;;;;;;3.20;3.10;;;27.20;58.90;;;;;;4955310;28;20213;-75
2023/04/23 13:22:09;;;;;;;3.08;2.95;;;27.40;59.50;;;;;;4958066;28;20221;-75
2023/04/23 13:24:35;;;;;;;10.23;9.82;;;28.00;59.30;;;;;;4955517;29;20170;-75
2023/04/23 13:27:01;;;;;;;9.77;9.35;;;29.20;57.40;;;;;;4954831;29;20181;-74
2023/04/23 13:29:27;;;;;;;11.60;11.10;;;28.70;57.00;;;;;;4954187;28;20185;-75
2023/04/23 13:31:54;;;;;;;9.95;9.55;;;28.10;57.80;;;;;;4955057;29;20351;-75
2023/04/23 13:34:20;;;;;;;7.85;7.45;;;27.10;60.00;;;;;;4953923;29;20591;-76
2023/04/23 13:36:46;;;;;;;3.78;3.67;;;25.90;61.80;;;;;;4969836;28;20185;-75
2023/04/23 13:39:13;;;;;;;3.10;2.90;;;25.40;64.20;;;;;;4954590;29;20186;-75
2023/04/23 13:41:41;;;;;;;3.67;3.58;;;25.40;64.70;;;;;;4954662;28;20221;-75
2023/04/23 13:44:07;;;;;;;9.48;9.10;;;27.40;60.40;;;;;;4954690;29;20182;-75
2023/04/23 13:46:33;;;;;;;15.93;15.23;;;28.30;56.30;;;;;;4954827;28;20555;-75
2023/04/23 13:49:00;;;;;;;11.82;11.32;;;29.00;53.70;;;;;;4954705;28;20190;-75
2023/04/23 13:51:26;;;;;;;11.43;10.85;;;28.30;53.90;;;;;;4954456;28;20208;-75
2023/04/23 13:53:52;;;;;;;17.13;16.35;;;28.30;54.60;;;;;;4954689;28;20186;-75
2023/04/23 13:56:17;;;;;;;11.48;10.95;;;28.60;54.40;;;;;;4953181;28;20228;-75
2023/04/23 13:58:46;;;;;;;6.68;6.38;;;27.80;53.20;;;;;;4954504;29;20190;-75
2023/04/23 14:01:13;;;;;;;7.80;7.30;;;26.20;56.20;;;;;;4959459;28;20923;-75
2023/04/23 14:03:39;;;;;;;10.70;10.20;;;25.40;58.70;;;;;;4966422;28;20190;-75
2023/04/23 14:06:05;;;;;;;15.20;14.55;;;26.40;57.60;;;;;;4968502;28;20200;-75
2023/04/23 14:08:31;;;;;;;11.95;11.45;;;27.80;54.00;;;;;;4961569;28;20269;-76
2023/04/23 14:10:57;;;;;;;10.20;9.68;;;28.50;54.20;;;;;;4968776;28;20301;-75
2023/04/23 14:13:22;;;;;;;8.20;7.80;;;27.40;55.70;;;;;;4954090;29;20192;-75
2023/04/23 14:15:48;;;;;;;7.05;6.75;;;26.40;58.30;;;;;;4953905;28;20271;-75
2023/04/23 14:18:14;;;;;;;6.35;6.10;;;26.00;59.10;;;;;;4952377;29;20688;-75
2023/04/23 14:20:41;;;;;;;4.40;4.00;;;25.30;59.20;;;;;;4953792;28;20241;-75
2023/04/23 14:23:18;;;;;;;4.43;4.22;;;24.60;59.90;;;;;;4953925;28;20752;-75
2023/04/23 14:25:45;;;;;;;4.53;3.53;;;24.90;59.10;;;;;;4968850;28;20189;-75
2023/04/23 14:28:28;;;;;;;4.70;4.40;;;25.50;59.40;;;;;;4953674;28;20174;-75
2023/04/23 14:30:56;;;;;;;6.95;6.50;;;26.30;58.50;;;;;;4953657;29;20209;-76
2023/04/23 14:33:22;;;;;;;9.27;8.82;;;27.50;55.50;;;;;;4952479;29;20200;-75
2023/04/23 14:35:48;;;;;;;8.63;8.25;;;27.90;53.00;;;;;;4952554;29;20186;-75
2023/04/23 14:38:13;;;;;;;6.70;6.22;;;26.80;54.50;;;;;;4953097;28;20215;-75
2023/04/23 14:40:39;;;;;;;4.25;4.05;;;25.20;56.30;;;;;;4953364;28;20210;-75
2023/04/23 14:43:05;;;;;;;3.53;3.25;;;23.90;58.50;;;;;;4952846;29;20189;-75
2023/04/23 14:45:32;;;;;;;4.47;2.88;;;23.70;61.00;;;;;;4953714;28;20185;-75
2023/04/23 14:48:01;;;;;;;3.05;2.90;;;24.40;60.80;;;;;;4952447;28;20189;-75
2023/04/23 14:50:27;;;;;;;3.15;3.05;;;24.70;58.10;;;;;;4968539;28;20277;-74
2023/04/23 14:52:53;;;;;;;4.18;3.95;;;26.00;57.20;;;;;;4968383;28;20178;-75
2023/04/23 14:55:20;;;;;;;4.22;4.03;;;26.50;56.10;;;;;;4952380;29;20705;-76
2023/04/23 14:57:46;;;;;;;5.38;5.20;;;26.80;56.30;;;;;;4967973;28;20248;-74
2023/04/23 15:00:14;;;;;;;7.20;6.90;;;27.40;56.10;;;;;;4953432;28;20242;-75
2023/04/23 15:02:40;;;;;;;7.68;7.00;;;26.90;55.00;;;;;;4953543;29;20185;-75
2023/04/23 15:05:07;;;;;;;5.43;5.15;;;26.40;56.30;;;;;;4953488;29;20185;-75
2023/04/23 15:07:37;;;;;;;3.88;3.78;;;26.00;56.20;;;;;;4952281;29;20186;-76
2023/04/23 15:10:08;;;;;;;4.10;3.92;;;25.40;57.30;;;;;;4954000;29;20288;-76
2023/04/23 15:12:40;;;;;;;4.20;3.92;;;24.90;57.00;;;;;;4972021;28;20237;-75
2023/04/23 15:15:13;;;;;;;3.83;3.50;;;25.10;59.00;;;;;;4972289;28;20185;-75
2023/04/23 15:17:38;;;;;;;4.13;3.83;;;24.80;57.80;;;;;;4953701;28;20186;-75
2023/04/23 15:20:05;;;;;;;3.95;3.65;;;24.60;58.10;;;;;;4952060;29;20209;-74
2023/04/23 15:22:31;;;;;;;3.47;3.25;;;24.40;58.20;;;;;;4953248;28;20217;-75
2023/04/23 15:24:56;;;;;;;4.40;3.42;;;24.40;60.10;;;;;;4953293;28;20181;-75
2023/04/23 15:27:23;;;;;;;3.30;3.00;;;24.40;61.40;;;;;;4953022;28;20182;-75
2023/04/23 15:29:48;;;;;;;3.05;2.90;;;24.50;59.80;;;;;;4953394;29;20174;-74
2023/04/23 15:32:15;;;;;;;3.63;3.42;;;24.30;61.00;;;;;;4953690;28;20368;-76
2023/04/23 15:34:41;;;;;;;6.80;6.05;;;23.70;60.20;;;;;;4953048;28;20182;-74
2023/04/23 15:37:07;;;;;;;4.10;3.90;;;23.30;60.90;;;;;;4967790;28;20284;-74
2023/04/23 15:39:33;;;;;;;7.85;7.05;;;23.40;62.30;;;;;;4953155;29;20617;-74